sensor_id;sensor_type;location;lat;lon;timestamp;temperature;humidity
19561;DHT22;9927;47.792;10.616;2023-03-22T04:01:05;7.60;99.90
19561;DHT22;9927;47.792;10.616;2023-03-22T04:03:32;7.60;99.90
19561;DHT22;9927;47.792;10.616;2023-03-22T04:05:59;7.60;99.90
19561;DHT22;9927;47.792;10.616;2023-03-22T04:08:27;7.60;99.90
19561;DHT22;9927;47.792;10.616;2023-03-22T04:10:54;7.30;99.90
19561;DHT22;9927;47.792;10.616;2023-03-22T04:13:21;7.20;99.90
19561;DHT22;9927;47.792;10.616;2023-03-22T04:15:54;7.20;99.90
19561;DHT22;9927;47.792;10.616;2023-03-22T04:18:23;7.20;99.90
19561;DHT22;9927;47.792;10.616;2023-03-22T04:20:50;7.20;99.90
19561;DHT22;9927;47.792;10.616;2023-03-22T04:23:19;7.10;99.90
19561;DHT22;9927;47.792;10.616;2023-03-22T04:25:49;7.20;99.90
19561;DHT22;9927;47.792;10.616;2023-03-22T04:28:16;7.20;99.90
19561;DHT22;9927;47.792;10.616;2023-03-22T04:30:46;7.20;99.90
19561;DHT22;9927;47.792;10.616;2023-03-22T04:33:18;7.30;99.90
19561;DHT22;9927;47.792;10.616;2023-03-22T04:35:45;7.40;99.90
19561;DHT22;9927;47.792;10.616;2023-03-22T04:38:13;7.40;99.90
19561;DHT22;9927;47.792;10.616;2023-03-22T04:40:40;7.40;99.90
19561;DHT22;9927;47.792;10.616;2023-03-22T04:43:12;7.40;99.90
19561;DHT22;9927;47.792;10.616;2023-03-22T04:45:41;7.40;99.90
19561;DHT22;9927;47.792;10.616;2023-03-22T04:48:09;7.40;99.90
19561;DHT22;9927;47.792;10.616;2023-03-22T04:50:38;7.40;99.90
19561;DHT22;9927;47.792;10.616;2023-03-22T04:53:06;7.30;99.90
19561;DHT22;9927;47.792;10.616;2023-03-22T04:55:34;7.20;99.90
19561;DHT22;9927;47.792;10.616;2023-03-22T04:58:01;7.20;99.90
19561;DHT22;9927;47.792;10.616;2023-03-22T05:00:28;7.20;99.90
19561;DHT22;9927;47.792;10.616;2023-03-22T05:02:56;7.20;99.90
19561;DHT22;9927;47.792;10.616;2023-03-22T05:05:24;7.10;99.90
19561;DHT22;9927;47.792;10.616;2023-03-22T05:07:51;7.10;99.90
19561;DHT22;9927;47.792;10.616;2023-03-22T05:10:19;7.00;99.90
19561;DHT22;9927;47.792;10.616;2023-03-22T05:12:46;7.00;99.90
19561;DHT22;9927;47.792;10.616;2023-03-22T05:15:13;6.90;99.90
19561;DHT22;9927;47.792;10.616;2023-03-22T05:17:41;6.90;99.90
19561;DHT22;9927;47.792;10.616;2023-03-22T05:20:08;6.90;99.90
19561;DHT22;9927;47.792;10.616;2023-03-22T05:22:36;7.00;99.90
19561;DHT22;9927;47.792;10.616;2023-03-22T05:25:08;6.90;99.90
19561;DHT22;9927;47.792;10.616;2023-03-22T05:27:36;6.80;99.90
19561;DHT22;9927;47.792;10.616;2023-03-22T05:30:05;6.80;99.90
19561;DHT22;9927;47.792;10.616;2023-03-22T05:32:33;6.60;99.90
19561;DHT22;9927;47.792;10.616;2023-03-22T05:35:03;6.50;99.90
19561;DHT22;9927;47.792;10.616;2023-03-22T05:37:31;6.50;99.90
19561;DHT22;9927;47.792;10.616;2023-03-22T05:39:58;6.60;99.90
19561;DHT22;9927;47.792;10.616;2023-03-22T05:42:25;6.60;99.90
19561;DHT22;9927;47.792;10.616;2023-03-22T05:47:20;6.70;99.90
19561;DHT22;9927;47.792;10.616;2023-03-22T05:49:48;6.70;99.90
19561;DHT22;9927;47.792;10.616;2023-03-22T05:52:15;6.40;99.90
19561;DHT22;9927;47.792;10.616;2023-03-22T05:54:42;6.40;99.90
19561;DHT22;9927;47.792;10.616;2023-03-22T05:57:09;6.40;99.90
19561;DHT22;9927;47.792;10.616;2023-03-22T05:59:36;6.50;99.90
19561;DHT22;9927;47.792;10.616;2023-03-22T06:02:04;6.50;99.90
19561;DHT22;9927;47.792;10.616;2023-03-22T06:04:31;6.70;99.90
19561;DHT22;9927;47.792;10.616;2023-03-22T06:06:58;6.80;99.90
19561;DHT22;9927;47.792;10.616;2023-03-22T06:09:26;6.70;99.90
19561;DHT22;9927;47.792;10.616;2023-03-22T06:11:53;6.80;99.90
19561;DHT22;9927;47.792;10.616;2023-03-22T06:14:20;6.70;99.90
19561;DHT22;9927;47.792;10.616;2023-03-22T06:16:47;6.50;99.90
19561;DHT22;9927;47.792;10.616;2023-03-22T06:19:15;6.50;99.90
19561;DHT22;9927;47.792;10.616;2023-03-22T06:21:42;6.90;99.90
19561;DHT22;9927;47.792;10.616;2023-03-22T06:24:09;7.30;99.90
19561;DHT22;9927;47.792;10.616;2023-03-22T06:26:37;7.90;99.90
19561;DHT22;9927;47.792;10.616;2023-03-22T06:29:04;8.20;99.90
19561;DHT22;9927;47.792;10.616;2023-03-22T06:31:31;8.80;99.90
19561;DHT22;9927;47.792;10.616;2023-03-22T06:33:58;9.70;99.90
19561;DHT22;9927;47.792;10.616;2023-03-22T06:36:25;10.20;99.90
19561;DHT22;9927;47.792;10.616;2023-03-22T06:38:53;10.40;99.90
19561;DHT22;9927;47.792;10.616;2023-03-22T06:41:20;11.20;99.90
19561;DHT22;9927;47.792;10.616;2023-03-22T06:43:47;12.10;99.90
19561;DHT22;9927;47.792;10.616;2023-03-22T06:46:15;13.00;99.90
19561;DHT22;9927;47.792;10.616;2023-03-22T06:48:42;13.20;99.90
19561;DHT22;9927;47.792;10.616;2023-03-22T06:51:10;13.80;99.90
19561;DHT22;9927;47.792;10.616;2023-03-22T06:53:37;14.20;99.90
19561;DHT22;9927;47.792;10.616;2023-03-22T06:56:05;14.40;99.90
19561;DHT22;9927;47.792;10.616;2023-03-22T06:58:32;14.20;99.90
19561;DHT22;9927;47.792;10.616;2023-03-22T07:00:59;14.00;99.90
19561;DHT22;9927;47.792;10.616;2023-03-22T07:03:27;14.80;99.90
19561;DHT22;9927;47.792;10.616;2023-03-22T07:06:06;15.90;99.90
19561;DHT22;9927;47.792;10.616;2023-03-22T07:08:34;16.10;99.90
19561;DHT22;9927;47.792;10.616;2023-03-22T07:11:01;15.80;99.90
19561;DHT22;9927;47.792;10.616;2023-03-22T07:13:29;16.50;99.60
19561;DHT22;9927;47.792;10.616;2023-03-22T07:15:58;17.00;97.50
19561;DHT22;9927;47.792;10.616;2023-03-22T07:18:27;17.20;97.70
19561;DHT22;9927;47.792;10.616;2023-03-22T07:20:54;17.00;97.50
19561;DHT22;9927;47.792;10.616;2023-03-22T07:23:21;17.50;95.70
19561;DHT22;9927;47.792;10.616;2023-03-22T07:25:49;17.60;90.80
19561;DHT22;9927;47.792;10.616;2023-03-22T07:28:17;17.50;91.60
19561;DHT22;9927;47.792;10.616;2023-03-22T07:30:44;17.40;91.40
19561;DHT22;9927;47.792;10.616;2023-03-22T07:33:11;17.50;91.60
19561;DHT22;9927;47.792;10.616;2023-03-22T07:35:39;17.50;88.50
19561;DHT22;9927;47.792;10.616;2023-03-22T07:38:06;17.40;90.50
19561;DHT22;9927;47.792;10.616;2023-03-22T07:40:33;17.90;90.30
19561;DHT22;9927;47.792;10.616;2023-03-22T07:43:02;18.30;86.10
19561;DHT22;9927;47.792;10.616;2023-03-22T07:45:29;18.60;84.90
19561;DHT22;9927;47.792;10.616;2023-03-22T07:47:57;18.40;88.50
19561;DHT22;9927;47.792;10.616;2023-03-22T07:50:24;18.10;90.10
19561;DHT22;9927;47.792;10.616;2023-03-22T07:52:51;18.90;89.20
19561;DHT22;9927;47.792;10.616;2023-03-22T07:55:18;20.00;82.20
19561;DHT22;9927;47.792;10.616;2023-03-22T07:57:46;20.20;83.90
19561;DHT22;9927;47.792;10.616;2023-03-22T08:00:14;20.50;79.40
19561;DHT22;9927;47.792;10.616;2023-03-22T08:02:42;20.70;78.60
19561;DHT22;9927;47.792;10.616;2023-03-22T08:05:11;19.70;76.60
19561;DHT22;9927;47.792;10.616;2023-03-22T08:07:39;19.70;80.30
19561;DHT22;9927;47.792;10.616;2023-03-22T08:10:07;20.50;78.50
19561;DHT22;9927;47.792;10.616;2023-03-22T08:12:34;20.80;76.40
19561;DHT22;9927;47.792;10.616;2023-03-22T08:15:02;19.60;71.90
19561;DHT22;9927;47.792;10.616;2023-03-22T08:17:29;19.50;71.90
19561;DHT22;9927;47.792;10.616;2023-03-22T08:19:56;19.40;78.30
19561;DHT22;9927;47.792;10.616;2023-03-22T08:22:24;19.10;81.20
19561;DHT22;9927;47.792;10.616;2023-03-22T08:24:51;18.70;77.30
19561;DHT22;9927;47.792;10.616;2023-03-22T08:27:19;18.90;78.10
19561;DHT22;9927;47.792;10.616;2023-03-22T08:29:47;19.50;78.90
19561;DHT22;9927;47.792;10.616;2023-03-22T08:32:15;19.40;74.30
19561;DHT22;9927;47.792;10.616;2023-03-22T08:34:43;18.90;78.10
19561;DHT22;9927;47.792;10.616;2023-03-22T08:37:11;19.10;74.90
19561;DHT22;9927;47.792;10.616;2023-03-22T08:39:39;19.70;76.50
19561;DHT22;9927;47.792;10.616;2023-03-22T08:42:06;20.20;70.90
19561;DHT22;9927;47.792;10.616;2023-03-22T08:44:34;19.30;74.70
19561;DHT22;9927;47.792;10.616;2023-03-22T08:47:01;19.40;75.60
19561;DHT22;9927;47.792;10.616;2023-03-22T08:49:29;18.60;75.70
19561;DHT22;9927;47.792;10.616;2023-03-22T08:51:57;17.70;77.60
19561;DHT22;9927;47.792;10.616;2023-03-22T08:54:24;17.40;80.00
19561;DHT22;9927;47.792;10.616;2023-03-22T08:56:54;17.40;76.60
19561;DHT22;9927;47.792;10.616;2023-03-22T08:59:21;17.50;80.70
19561;DHT22;9927;47.792;10.616;2023-03-22T09:01:48;18.00;78.40
19561;DHT22;9927;47.792;10.616;2023-03-22T09:04:15;18.40;75.00
19561;DHT22;9927;47.792;10.616;2023-03-22T09:06:43;18.30;75.20
19561;DHT22;9927;47.792;10.616;2023-03-22T09:09:12;18.20;77.10
19561;DHT22;9927;47.792;10.616;2023-03-22T09:11:39;18.40;76.10
19561;DHT22;9927;47.792;10.616;2023-03-22T09:14:08;18.40;76.30
19561;DHT22;9927;47.792;10.616;2023-03-22T09:16:36;18.20;77.20
19561;DHT22;9927;47.792;10.616;2023-03-22T09:19:03;17.50;79.40
19561;DHT22;9927;47.792;10.616;2023-03-22T09:21:30;16.70;82.00
19561;DHT22;9927;47.792;10.616;2023-03-22T09:23:58;16.40;82.60
19561;DHT22;9927;47.792;10.616;2023-03-22T09:26:25;16.80;81.40
19561;DHT22;9927;47.792;10.616;2023-03-22T09:28:53;17.10;82.30
19561;DHT22;9927;47.792;10.616;2023-03-22T09:31:20;17.20;82.80
19561;DHT22;9927;47.792;10.616;2023-03-22T09:33:48;17.40;82.30
19561;DHT22;9927;47.792;10.616;2023-03-22T09:36:15;17.40;80.70
19561;DHT22;9927;47.792;10.616;2023-03-22T09:38:42;17.40;82.20
19561;DHT22;9927;47.792;10.616;2023-03-22T09:43:57;17.70;79.80
19561;DHT22;9927;47.792;10.616;2023-03-22T09:46:31;17.00;81.10
19561;DHT22;9927;47.792;10.616;2023-03-22T09:49:02;16.80;82.10
19561;DHT22;9927;47.792;10.616;2023-03-22T09:51:59;16.90;81.70
19561;DHT22;9927;47.792;10.616;2023-03-22T09:54:34;17.00;84.20
19561;DHT22;9927;47.792;10.616;2023-03-22T10:05:26;17.00;80.60
19561;DHT22;9927;47.792;10.616;2023-03-22T10:11:53;17.10;82.60
19561;DHT22;9927;47.792;10.616;2023-03-22T10:16:51;17.60;79.10
19561;DHT22;9927;47.792;10.616;2023-03-22T10:19:30;17.60;80.40
19561;DHT22;9927;47.792;10.616;2023-03-22T10:22:00;17.50;81.70
19561;DHT22;9927;47.792;10.616;2023-03-22T10:24:33;17.40;82.10
19561;DHT22;9927;47.792;10.616;2023-03-22T10:27:01;17.50;80.10
19561;DHT22;9927;47.792;10.616;2023-03-22T10:29:39;17.50;81.00
19561;DHT22;9927;47.792;10.616;2023-03-22T10:32:15;17.60;82.30
19561;DHT22;9927;47.792;10.616;2023-03-22T10:34:43;17.50;79.80
19561;DHT22;9927;47.792;10.616;2023-03-22T10:37:17;17.50;80.00
19561;DHT22;9927;47.792;10.616;2023-03-22T10:39:54;17.60;81.90
19561;DHT22;9927;47.792;10.616;2023-03-22T10:42:27;17.60;82.30
19561;DHT22;9927;47.792;10.616;2023-03-22T10:45:06;17.10;83.10
19561;DHT22;9927;47.792;10.616;2023-03-22T10:47:44;17.10;83.70
19561;DHT22;9927;47.792;10.616;2023-03-22T10:50:33;17.20;82.20
19561;DHT22;9927;47.792;10.616;2023-03-22T10:55:47;17.30;80.00
19561;DHT22;9927;47.792;10.616;2023-03-22T10:58:19;17.40;80.60
19561;DHT22;9927;47.792;10.616;2023-03-22T11:00:58;17.30;78.90
19561;DHT22;9927;47.792;10.616;2023-03-22T11:06:10;17.30;83.20
19561;DHT22;9927;47.792;10.616;2023-03-22T11:08:44;17.40;85.00
19561;DHT22;9927;47.792;10.616;2023-03-22T11:11:17;17.60;83.10
19561;DHT22;9927;47.792;10.616;2023-03-22T11:14:13;17.70;84.60
19561;DHT22;9927;47.792;10.616;2023-03-22T11:16:55;17.90;85.40
19561;DHT22;9927;47.792;10.616;2023-03-22T11:19:32;18.00;85.80
19561;DHT22;9927;47.792;10.616;2023-03-22T11:22:03;18.00;83.80
19561;DHT22;9927;47.792;10.616;2023-03-22T11:24:33;18.10;84.80
19561;DHT22;9927;47.792;10.616;2023-03-22T11:29:46;18.00;82.90
19561;DHT22;9927;47.792;10.616;2023-03-22T11:34:59;17.70;82.30
19561;DHT22;9927;47.792;10.616;2023-03-22T11:37:27;17.70;82.90
19561;DHT22;9927;47.792;10.616;2023-03-22T11:40:00;17.80;82.10
19561;DHT22;9927;47.792;10.616;2023-03-22T11:42:27;17.90;82.50
19561;DHT22;9927;47.792;10.616;2023-03-22T11:44:55;18.30;81.80
19561;DHT22;9927;47.792;10.616;2023-03-22T11:47:25;18.20;82.30
19561;DHT22;9927;47.792;10.616;2023-03-22T11:49:53;18.00;77.00
19561;DHT22;9927;47.792;10.616;2023-03-22T11:52:26;17.60;80.70
19561;DHT22;9927;47.792;10.616;2023-03-22T11:54:55;17.70;82.30
19561;DHT22;9927;47.792;10.616;2023-03-22T11:57:27;17.70;83.00
19561;DHT22;9927;47.792;10.616;2023-03-22T12:02:44;18.00;80.90
19561;DHT22;9927;47.792;10.616;2023-03-22T12:05:19;17.90;78.90
19561;DHT22;9927;47.792;10.616;2023-03-22T12:07:51;17.90;79.90
19561;DHT22;9927;47.792;10.616;2023-03-22T12:10:27;17.90;78.30
19561;DHT22;9927;47.792;10.616;2023-03-22T12:13:03;18.00;79.80
19561;DHT22;9927;47.792;10.616;2023-03-22T12:15:39;18.00;77.20
19561;DHT22;9927;47.792;10.616;2023-03-22T12:18:15;18.00;78.90
19561;DHT22;9927;47.792;10.616;2023-03-22T12:20:53;18.20;79.70
19561;DHT22;9927;47.792;10.616;2023-03-22T12:23:27;18.30;79.60
19561;DHT22;9927;47.792;10.616;2023-03-22T12:26:14;18.20;79.00
19561;DHT22;9927;47.792;10.616;2023-03-22T12:29:05;18.20;77.00
19561;DHT22;9927;47.792;10.616;2023-03-22T12:31:59;18.20;81.90
19561;DHT22;9927;47.792;10.616;2023-03-22T12:34:40;18.30;79.90
19561;DHT22;9927;47.792;10.616;2023-03-22T12:37:32;18.00;76.40
19561;DHT22;9927;47.792;10.616;2023-03-22T12:42:48;18.10;79.80
19561;DHT22;9927;47.792;10.616;2023-03-22T12:45:26;18.30;78.30
19561;DHT22;9927;47.792;10.616;2023-03-22T12:48:04;18.30;79.20
19561;DHT22;9927;47.792;10.616;2023-03-22T12:50:38;18.40;82.00
19561;DHT22;9927;47.792;10.616;2023-03-22T12:53:15;18.40;75.00
19561;DHT22;9927;47.792;10.616;2023-03-22T12:55:44;18.40;73.00
19561;DHT22;9927;47.792;10.616;2023-03-22T12:58:17;18.40;74.30
19561;DHT22;9927;47.792;10.616;2023-03-22T13:03:43;18.60;77.30
19561;DHT22;9927;47.792;10.616;2023-03-22T13:11:47;18.50;73.60
19561;DHT22;9927;47.792;10.616;2023-03-22T13:22:27;18.50;75.20
19561;DHT22;9927;47.792;10.616;2023-03-22T13:24:59;18.60;70.80
19561;DHT22;9927;47.792;10.616;2023-03-22T13:27:55;18.60;71.40
19561;DHT22;9927;47.792;10.616;2023-03-22T13:33:00;18.80;77.20
19561;DHT22;9927;47.792;10.616;2023-03-22T13:35:51;18.70;75.80
19561;DHT22;9927;47.792;10.616;2023-03-22T13:38:29;18.70;77.40
19561;DHT22;9927;47.792;10.616;2023-03-22T13:43:59;18.70;78.30
19561;DHT22;9927;47.792;10.616;2023-03-22T13:46:49;18.70;73.40
19561;DHT22;9927;47.792;10.616;2023-03-22T13:52:06;18.80;76.90
19561;DHT22;9927;47.792;10.616;2023-03-22T13:54:41;18.70;77.10
19561;DHT22;9927;47.792;10.616;2023-03-22T13:57:16;18.80;75.80
19561;DHT22;9927;47.792;10.616;2023-03-22T14:00:03;18.80;74.20
19561;DHT22;9927;47.792;10.616;2023-03-22T14:02:42;19.00;75.40
19561;DHT22;9927;47.792;10.616;2023-03-22T14:05:14;19.10;77.90
19561;DHT22;9927;47.792;10.616;2023-03-22T14:07:50;19.10;78.00
19561;DHT22;9927;47.792;10.616;2023-03-22T14:10:25;19.20;77.40
19561;DHT22;9927;47.792;10.616;2023-03-22T14:13:01;19.30;75.60
19561;DHT22;9927;47.792;10.616;2023-03-22T14:15:39;19.10;77.60
19561;DHT22;9927;47.792;10.616;2023-03-22T14:18:19;19.10;77.60
19561;DHT22;9927;47.792;10.616;2023-03-22T14:20:50;19.10;76.80
19561;DHT22;9927;47.792;10.616;2023-03-22T14:23:47;19.10;77.50
19561;DHT22;9927;47.792;10.616;2023-03-22T14:26:17;18.90;72.20
19561;DHT22;9927;47.792;10.616;2023-03-22T14:28:45;18.90;75.00
19561;DHT22;9927;47.792;10.616;2023-03-22T14:31:25;19.00;75.00
19561;DHT22;9927;47.792;10.616;2023-03-22T14:33:52;18.90;78.00
19561;DHT22;9927;47.792;10.616;2023-03-22T14:36:19;18.90;71.90
19561;DHT22;9927;47.792;10.616;2023-03-22T14:38:48;18.80;71.50
19561;DHT22;9927;47.792;10.616;2023-03-22T14:41:23;18.70;71.30
19561;DHT22;9927;47.792;10.616;2023-03-22T14:43:56;18.60;70.10
19561;DHT22;9927;47.792;10.616;2023-03-22T14:46:30;18.60;71.10
19561;DHT22;9927;47.792;10.616;2023-03-22T14:48:59;18.50;71.60
19561;DHT22;9927;47.792;10.616;2023-03-22T14:51:39;18.40;70.70
19561;DHT22;9927;47.792;10.616;2023-03-22T14:54:09;18.30;70.70
19561;DHT22;9927;47.792;10.616;2023-03-22T14:56:41;18.30;71.10
19561;DHT22;9927;47.792;10.616;2023-03-22T14:59:16;18.30;71.90
19561;DHT22;9927;47.792;10.616;2023-03-22T15:01:55;18.30;71.00
19561;DHT22;9927;47.792;10.616;2023-03-22T15:04:23;18.30;70.80
19561;DHT22;9927;47.792;10.616;2023-03-22T15:06:53;18.60;71.00
19561;DHT22;9927;47.792;10.616;2023-03-22T15:09:20;18.80;73.20
19561;DHT22;9927;47.792;10.616;2023-03-22T15:11:49;18.80;70.20
19561;DHT22;9927;47.792;10.616;2023-03-22T15:14:16;18.70;71.40
19561;DHT22;9927;47.792;10.616;2023-03-22T15:16:46;18.70;71.80
19561;DHT22;9927;47.792;10.616;2023-03-22T15:19:21;18.70;73.30
19561;DHT22;9927;47.792;10.616;2023-03-22T15:22:03;18.30;71.50
19561;DHT22;9927;47.792;10.616;2023-03-22T15:24:35;18.20;72.20
19561;DHT22;9927;47.792;10.616;2023-03-22T15:27:03;18.00;73.70
19561;DHT22;9927;47.792;10.616;2023-03-22T15:29:29;18.00;75.30
19561;DHT22;9927;47.792;10.616;2023-03-22T15:32:02;18.00;74.90
19561;DHT22;9927;47.792;10.616;2023-03-22T15:34:31;18.10;74.40
19561;DHT22;9927;47.792;10.616;2023-03-22T15:36:59;18.20;74.10
19561;DHT22;9927;47.792;10.616;2023-03-22T15:39:35;18.30;72.30
19561;DHT22;9927;47.792;10.616;2023-03-22T15:42:16;18.30;70.50
19561;DHT22;9927;47.792;10.616;2023-03-22T15:45:13;18.30;73.60
19561;DHT22;9927;47.792;10.616;2023-03-22T15:47:50;18.30;74.40
19561;DHT22;9927;47.792;10.616;2023-03-22T15:50:21;18.40;73.60
19561;DHT22;9927;47.792;10.616;2023-03-22T15:52:53;18.30;73.20
19561;DHT22;9927;47.792;10.616;2023-03-22T15:55:35;18.20;72.00
19561;DHT22;9927;47.792;10.616;2023-03-22T15:58:04;18.20;73.00
19561;DHT22;9927;47.792;10.616;2023-03-22T16:00:35;18.20;71.40
19561;DHT22;9927;47.792;10.616;2023-03-22T16:05:37;17.90;71.20
19561;DHT22;9927;47.792;10.616;2023-03-22T16:08:04;17.90;72.30
19561;DHT22;9927;47.792;10.616;2023-03-22T16:10:32;17.90;71.30
19561;DHT22;9927;47.792;10.616;2023-03-22T16:12:59;17.90;71.70
19561;DHT22;9927;47.792;10.616;2023-03-22T16:15:31;17.70;68.00
19561;DHT22;9927;47.792;10.616;2023-03-22T16:17:57;17.70;69.60
19561;DHT22;9927;47.792;10.616;2023-03-22T16:20:25;17.50;71.10
19561;DHT22;9927;47.792;10.616;2023-03-22T16:22:59;17.40;73.20
19561;DHT22;9927;47.792;10.616;2023-03-22T16:25:26;17.10;70.80
19561;DHT22;9927;47.792;10.616;2023-03-22T16:27:54;17.10;71.40
19561;DHT22;9927;47.792;10.616;2023-03-22T16:30:20;17.10;71.30
19561;DHT22;9927;47.792;10.616;2023-03-22T16:32:46;17.00;71.80
19561;DHT22;9927;47.792;10.616;2023-03-22T16:35:21;16.80;73.20
19561;DHT22;9927;47.792;10.616;2023-03-22T16:37:49;16.80;73.80
19561;DHT22;9927;47.792;10.616;2023-03-22T16:40:18;16.80;74.80
19561;DHT22;9927;47.792;10.616;2023-03-22T16:42:45;16.70;75.50
19561;DHT22;9927;47.792;10.616;2023-03-22T16:45:27;16.50;74.00
19561;DHT22;9927;47.792;10.616;2023-03-22T16:47:54;16.50;75.00
19561;DHT22;9927;47.792;10.616;2023-03-22T16:50:23;16.40;75.40
19561;DHT22;9927;47.792;10.616;2023-03-22T16:52:50;16.40;74.00
19561;DHT22;9927;47.792;10.616;2023-03-22T16:55:29;16.20;73.70
19561;DHT22;9927;47.792;10.616;2023-03-22T16:57:57;16.20;75.00
19561;DHT22;9927;47.792;10.616;2023-03-22T17:00:23;16.10;75.70
19561;DHT22;9927;47.792;10.616;2023-03-22T17:02:57;16.00;76.60
19561;DHT22;9927;47.792;10.616;2023-03-22T17:05:26;15.60;77.60
19561;DHT22;9927;47.792;10.616;2023-03-22T17:07:54;15.60;77.50
19561;DHT22;9927;47.792;10.616;2023-03-22T17:10:27;15.40;77.30
19561;DHT22;9927;47.792;10.616;2023-03-22T17:12:54;15.40;77.50
19561;DHT22;9927;47.792;10.616;2023-03-22T17:15:30;15.30;77.90
19561;DHT22;9927;47.792;10.616;2023-03-22T17:17:58;15.20;79.00
19561;DHT22;9927;47.792;10.616;2023-03-22T17:20:26;15.10;79.10
19561;DHT22;9927;47.792;10.616;2023-03-22T17:22:53;15.00;78.70
19561;DHT22;9927;47.792;10.616;2023-03-22T17:25:22;14.80;78.40
19561;DHT22;9927;47.792;10.616;2023-03-22T17:27:49;14.80;78.50
19561;DHT22;9927;47.792;10.616;2023-03-22T17:30:16;14.70;79.30
19561;DHT22;9927;47.792;10.616;2023-03-22T17:32:43;14.60;79.60
19561;DHT22;9927;47.792;10.616;2023-03-22T17:35:12;14.30;79.60
19561;DHT22;9927;47.792;10.616;2023-03-22T17:37:39;14.30;80.00
19561;DHT22;9927;47.792;10.616;2023-03-22T17:40:10;14.20;80.30
19561;DHT22;9927;47.792;10.616;2023-03-22T17:42:37;14.10;81.20
19561;DHT22;9927;47.792;10.616;2023-03-22T17:45:05;14.00;80.60
19561;DHT22;9927;47.792;10.616;2023-03-22T17:47:31;13.90;80.90
19561;DHT22;9927;47.792;10.616;2023-03-22T17:49:57;13.80;80.90
19561;DHT22;9927;47.792;10.616;2023-03-22T17:52:23;13.80;81.50
19561;DHT22;9927;47.792;10.616;2023-03-22T17:54:50;13.70;81.50
19561;DHT22;9927;47.792;10.616;2023-03-22T17:57:16;13.60;81.80
19561;DHT22;9927;47.792;10.616;2023-03-22T17:59:43;13.50;82.90
19561;DHT22;9927;47.792;10.616;2023-03-22T18:02:15;13.40;83.70
19561;DHT22;9927;47.792;10.616;2023-03-22T18:04:41;13.20;85.00
19561;DHT22;9927;47.792;10.616;2023-03-22T18:07:07;13.10;85.20
19561;DHT22;9927;47.792;10.616;2023-03-22T18:09:33;13.00;86.10
19561;DHT22;9927;47.792;10.616;2023-03-22T18:11:59;12.90;86.80
19561;DHT22;9927;47.792;10.616;2023-03-22T18:14:26;12.80;86.80
19561;DHT22;9927;47.792;10.616;2023-03-22T18:16:53;12.70;87.60
19561;DHT22;9927;47.792;10.616;2023-03-22T18:19:19;12.50;89.00
19561;DHT22;9927;47.792;10.616;2023-03-22T18:21:55;12.00;90.20
19561;DHT22;9927;47.792;10.616;2023-03-22T18:24:21;11.80;90.70
19561;DHT22;9927;47.792;10.616;2023-03-22T18:26:52;11.80;91.30
19561;DHT22;9927;47.792;10.616;2023-03-22T18:29:19;11.70;91.10
19561;DHT22;9927;47.792;10.616;2023-03-22T18:31:46;11.70;91.20
19561;DHT22;9927;47.792;10.616;2023-03-22T18:34:12;11.70;91.20
19561;DHT22;9927;47.792;10.616;2023-03-22T18:36:38;11.70;91.60
19561;DHT22;9927;47.792;10.616;2023-03-22T18:39:05;11.70;91.50
19561;DHT22;9927;47.792;10.616;2023-03-22T18:41:31;11.70;91.40
19561;DHT22;9927;47.792;10.616;2023-03-22T18:43:57;11.60;91.80
19561;DHT22;9927;47.792;10.616;2023-03-22T18:46:23;11.50;91.80
19561;DHT22;9927;47.792;10.616;2023-03-22T18:48:49;11.50;91.70
19561;DHT22;9927;47.792;10.616;2023-03-22T18:51:16;11.40;91.50
19561;DHT22;9927;47.792;10.616;2023-03-22T18:53:42;11.30;92.20
19561;DHT22;9927;47.792;10.616;2023-03-22T18:56:08;11.20;92.60
19561;DHT22;9927;47.792;10.616;2023-03-22T18:58:34;11.20;92.40
19561;DHT22;9927;47.792;10.616;2023-03-22T19:01:00;11.20;92.60
19561;DHT22;9927;47.792;10.616;2023-03-22T19:03:31;11.20;92.70
19561;DHT22;9927;47.792;10.616;2023-03-22T19:06:05;11.20;93.20
19561;DHT22;9927;47.792;10.616;2023-03-22T19:08:32;11.20;93.10
19561;DHT22;9927;47.792;10.616;2023-03-22T19:10:58;11.10;93.20
19561;DHT22;9927;47.792;10.616;2023-03-22T19:13:24;11.10;93.40
19561;DHT22;9927;47.792;10.616;2023-03-22T19:15:50;11.10;93.90
19561;DHT22;9927;47.792;10.616;2023-03-22T19:18:16;11.10;93.60
19561;DHT22;9927;47.792;10.616;2023-03-22T19:20:43;11.10;93.80
19561;DHT22;9927;47.792;10.616;2023-03-22T19:23:09;10.80;94.00
19561;DHT22;9927;47.792;10.616;2023-03-22T19:25:35;10.40;95.00
19561;DHT22;9927;47.792;10.616;2023-03-22T19:28:01;10.40;94.80
19561;DHT22;9927;47.792;10.616;2023-03-22T19:30:28;10.30;95.10
19561;DHT22;9927;47.792;10.616;2023-03-22T19:32:54;10.30;94.90
19561;DHT22;9927;47.792;10.616;2023-03-22T19:35:20;9.80;96.00
19561;DHT22;9927;47.792;10.616;2023-03-22T19:37:46;9.80;95.80
19561;DHT22;9927;47.792;10.616;2023-03-22T19:40:12;9.70;96.10
19561;DHT22;9927;47.792;10.616;2023-03-22T19:42:39;9.40;97.40
19561;DHT22;9927;47.792;10.616;2023-03-22T19:45:05;9.40;97.70
19561;DHT22;9927;47.792;10.616;2023-03-22T19:47:33;9.40;97.70
19561;DHT22;9927;47.792;10.616;2023-03-22T19:49:59;9.50;98.10
19561;DHT22;9927;47.792;10.616;2023-03-22T19:52:25;9.50;98.60
19561;DHT22;9927;47.792;10.616;2023-03-22T19:54:51;9.50;99.00
19561;DHT22;9927;47.792;10.616;2023-03-22T19:57:19;9.40;99.00
19561;DHT22;9927;47.792;10.616;2023-03-22T19:59:45;9.50;99.30
19561;DHT22;9927;47.792;10.616;2023-03-22T20:02:11;9.30;99.70
19561;DHT22;9927;47.792;10.616;2023-03-22T20:04:37;9.20;99.90
19561;DHT22;9927;47.792;10.616;2023-03-22T20:07:05;9.10;99.90
19561;DHT22;9927;47.792;10.616;2023-03-22T20:09:33;9.00;99.90
19561;DHT22;9927;47.792;10.616;2023-03-22T20:11:59;9.10;99.90
19561;DHT22;9927;47.792;10.616;2023-03-22T20:14:26;9.10;99.90
19561;DHT22;9927;47.792;10.616;2023-03-22T20:16:52;9.10;99.90
19561;DHT22;9927;47.792;10.616;2023-03-22T20:19:18;9.10;99.90
19561;DHT22;9927;47.792;10.616;2023-03-22T20:21:44;9.10;99.90
19561;DHT22;9927;47.792;10.616;2023-03-22T20:24:10;9.10;99.90
19561;DHT22;9927;47.792;10.616;2023-03-22T20:26:37;9.00;99.90
19561;DHT22;9927;47.792;10.616;2023-03-22T20:29:05;8.90;99.90
19561;DHT22;9927;47.792;10.616;2023-03-22T20:31:31;8.60;99.90
19561;DHT22;9927;47.792;10.616;2023-03-22T20:33:58;8.40;99.90
19561;DHT22;9927;47.792;10.616;2023-03-22T20:36:25;8.50;99.90
19561;DHT22;9927;47.792;10.616;2023-03-22T20:38:51;8.50;99.90
19561;DHT22;9927;47.792;10.616;2023-03-22T20:41:18;8.60;99.90
19561;DHT22;9927;47.792;10.616;2023-03-22T20:43:45;8.60;99.90
19561;DHT22;9927;47.792;10.616;2023-03-22T20:46:12;8.60;99.90
19561;DHT22;9927;47.792;10.616;2023-03-22T20:48:39;8.70;99.90
19561;DHT22;9927;47.792;10.616;2023-03-22T20:51:06;8.70;99.90
19561;DHT22;9927;47.792;10.616;2023-03-22T20:53:32;8.70;99.90
19561;DHT22;9927;47.792;10.616;2023-03-22T20:55:58;8.70;99.90